createdAt,value
2022-07-30T00:01:53.338Z,83.35
2022-07-30T00:06:55.025Z,83.15
2022-07-30T00:11:57.118Z,82.97
2022-07-30T00:16:59.791Z,83.20
2022-07-30T00:22:01.829Z,82.84
2022-07-30T00:27:03.929Z,83.05
2022-07-30T00:32:06.167Z,82.99
2022-07-30T00:37:07.884Z,82.32
2022-07-30T00:42:09.560Z,81.86
2022-07-30T00:47:11.309Z,82.43
2022-07-30T00:52:13.746Z,82.94
2022-07-30T00:57:16.108Z,82.13
2022-07-30T01:02:17.974Z,82.65
2022-07-30T01:07:19.879Z,83.06
2022-07-30T01:12:26.433Z,82.91
2022-07-30T01:17:28.467Z,82.96
2022-07-30T01:22:58.083Z,82.45
2022-07-30T01:28:06.170Z,81.67
2022-07-30T01:33:11.856Z,81.86
2022-07-30T01:38:16.661Z,82.00
2022-07-30T01:43:20.864Z,82.49
2022-07-30T01:48:25.334Z,82.60
2022-07-30T01:53:31.357Z,82.59
2022-07-30T01:58:36.410Z,82.79
2022-07-30T02:03:46.881Z,83.12
2022-07-30T02:08:55.173Z,83.05
2022-07-30T02:13:58.833Z,82.36
2022-07-30T02:19:11.012Z,81.97
2022-07-30T02:24:20.471Z,82.55
2022-07-30T02:29:24.069Z,82.87
2022-07-30T02:34:28.760Z,82.56
2022-07-30T02:39:36.434Z,82.62
2022-07-30T02:44:40.060Z,83.23
2022-07-30T02:49:42.782Z,82.97
2022-07-30T02:54:47.989Z,83.55
2022-07-30T02:59:51.742Z,84.10
2022-07-30T03:04:54.922Z,84.42
2022-07-30T03:09:58.238Z,84.36
2022-07-30T03:15:03.866Z,84.69
2022-07-30T03:20:09.785Z,85.10
2022-07-30T03:25:15.320Z,85.44
2022-07-30T03:30:17.234Z,85.73
2022-07-30T03:35:21.813Z,85.96
2022-07-30T03:40:24.366Z,85.73
2022-07-30T03:45:26.916Z,85.41
2022-07-30T03:50:36.935Z,85.34
2022-07-30T03:55:39.557Z,85.63
2022-07-30T04:01:07.635Z,85.38
2022-07-30T04:06:09.890Z,86.14
2022-07-30T04:11:11.635Z,86.51
2022-07-30T04:16:59.316Z,86.19
2022-07-30T04:22:03.143Z,86.11
2022-07-30T04:27:06.663Z,86.30
2022-07-30T04:32:09.760Z,86.50
2022-07-30T04:37:34.864Z,87.16
2022-07-30T04:42:37.143Z,87.84
2022-07-30T04:47:41.560Z,88.23
2022-07-30T04:53:06.394Z,88.60
2022-07-30T04:58:12.225Z,89.30
2022-07-30T05:03:16.249Z,89.35
2022-07-30T05:08:25.577Z,89.95
2022-07-30T05:13:34.167Z,89.75
2022-07-30T05:18:37.756Z,90.26
2022-07-30T05:23:39.763Z,89.76
2022-07-30T05:28:55.029Z,90.28
2022-07-30T05:34:03.510Z,90.17
2022-07-30T05:39:16.296Z,90.37
2022-07-30T05:44:27.323Z,90.44
2022-07-30T05:49:29.919Z,90.48
2022-07-30T05:54:40.540Z,90.96
2022-07-30T06:00:06.365Z,91.33
2022-07-30T06:05:24.671Z,91.32
2022-07-30T06:10:27.007Z,91.44
2022-07-30T06:15:28.711Z,91.00
2022-07-30T06:20:30.541Z,90.66
2022-07-30T06:25:55.290Z,90.37
2022-07-30T06:30:57.416Z,89.09
2022-07-30T06:36:02.223Z,89.99
2022-07-30T06:41:10.109Z,89.52
2022-07-30T06:46:23.990Z,88.85
2022-07-30T06:51:27.656Z,88.87
2022-07-30T06:56:29.746Z,89.11
2022-07-30T07:01:37.560Z,87.67
2022-07-30T07:06:39.548Z,86.79
2022-07-30T07:11:42.230Z,84.98
2022-07-30T07:16:49.269Z,84.58
2022-07-30T07:22:11.753Z,82.70
2022-07-30T07:27:15.718Z,82.48
2022-07-30T07:32:19.696Z,83.92
2022-07-30T07:37:22.248Z,81.19
2022-07-30T07:42:24.010Z,79.75
2022-07-30T07:47:26.532Z,79.62
2022-07-30T07:52:47.524Z,79.26
2022-07-30T07:57:49.780Z,78.61
2022-07-30T08:02:51.714Z,77.72
2022-07-30T08:07:54.133Z,75.40
2022-07-30T08:12:55.789Z,76.70
2022-07-30T08:18:23.206Z,74.66
2022-07-30T08:23:45.279Z,73.75
2022-07-30T08:28:47.641Z,72.80
2022-07-30T08:33:49.558Z,70.29
2022-07-30T08:38:51.860Z,70.90
2022-07-30T08:43:55.509Z,69.80
2022-07-30T08:48:58.470Z,68.38
2022-07-30T08:54:01.434Z,67.75
2022-07-30T08:59:03.394Z,66.03
2022-07-30T09:09:07.895Z,65.15
2022-07-30T09:14:12.646Z,64.65
2022-07-30T09:19:19.608Z,63.90
2022-07-30T09:24:21.955Z,63.82
2022-07-30T09:29:29.267Z,64.27
2022-07-30T09:34:49.774Z,63.34
2022-07-30T09:40:23.749Z,63.82
2022-07-30T09:46:01.555Z,63.24
2022-07-30T09:51:03.444Z,63.38
2022-07-30T09:56:25.009Z,60.59
2022-07-30T10:01:49.800Z,57.57
2022-07-30T10:07:25.026Z,56.98
2022-07-30T10:12:30.311Z,58.14
2022-07-30T10:17:34.356Z,58.90
2022-07-30T10:23:09.093Z,58.07
2022-07-30T10:28:12.965Z,56.01
2022-07-30T10:33:34.876Z,54.14
2022-07-30T10:38:41.659Z,51.19
2022-07-30T10:44:29.420Z,52.11
2022-07-30T10:49:40.509Z,52.14
2022-07-30T10:54:47.412Z,50.57
2022-07-30T10:59:52.409Z,50.64
2022-07-30T11:05:43.791Z,50.48
2022-07-30T11:10:44.989Z,51.19
2022-07-30T11:15:52.754Z,48.38
2022-07-30T11:21:15.747Z,47.60
2022-07-30T11:26:40.896Z,47.07
2022-07-30T11:32:07.422Z,46.35
2022-07-30T11:37:18.427Z,44.79
2022-07-30T11:42:31.033Z,46.17
2022-07-30T11:47:33.533Z,45.27
2022-07-30T11:52:35.421Z,46.48
2022-07-30T11:57:41.328Z,47.98
2022-07-30T12:02:43.340Z,46.11
2022-07-30T12:07:45.479Z,45.34
2022-07-30T12:12:47.681Z,43.95
2022-07-30T12:17:51.414Z,42.44
2022-07-30T12:23:03.671Z,42.73
2022-07-30T12:28:05.365Z,44.73
2022-07-30T12:33:07.529Z,42.08
2022-07-30T12:38:09.630Z,42.17
2022-07-30T12:43:13.617Z,43.25
2022-07-30T12:48:15.684Z,42.74
2022-07-30T12:53:17.932Z,43.21
2022-07-30T12:58:19.622Z,43.11
2022-07-30T13:03:23.358Z,40.72
2022-07-30T13:08:57.530Z,41.47
2022-07-30T13:14:00.135Z,41.25
2022-07-30T13:19:08.355Z,41.93
2022-07-30T13:24:11.019Z,42.11
2022-07-30T13:29:20.034Z,41.63
2022-07-30T13:34:21.810Z,40.73
2022-07-30T13:39:23.883Z,41.33
2022-07-30T13:44:25.648Z,40.00
2022-07-30T13:49:27.435Z,40.75
2022-07-30T13:54:30.670Z,41.50
2022-07-30T13:59:32.324Z,41.56
2022-07-30T14:04:34.042Z,41.07
2022-07-30T14:09:44.812Z,41.23
2022-07-30T14:14:48.819Z,40.48
2022-07-30T14:19:54.258Z,39.99
2022-07-30T14:24:55.982Z,40.07
2022-07-30T14:29:57.745Z,41.28
2022-07-30T14:34:59.497Z,42.79
2022-07-30T14:40:01.670Z,43.06
2022-07-30T14:45:04.909Z,42.56
2022-07-30T14:50:07.753Z,42.30
2022-07-30T14:55:09.837Z,42.50
2022-07-30T15:00:12.005Z,41.39
2022-07-30T15:05:13.718Z,40.72
2022-07-30T15:10:15.635Z,41.07
2022-07-30T15:15:17.670Z,40.29
2022-07-30T15:20:19.854Z,40.91
2022-07-30T15:25:23.688Z,39.98
2022-07-30T15:30:25.577Z,39.90
2022-07-30T15:35:27.322Z,40.24
2022-07-30T15:40:29.354Z,39.91
2022-07-30T15:45:31.164Z,39.57
2022-07-30T15:50:53.265Z,39.16
2022-07-30T15:55:54.924Z,38.56
2022-07-30T16:00:56.821Z,39.28
2022-07-30T16:05:58.549Z,38.65
2022-07-30T16:11:03.714Z,38.21
2022-07-30T16:16:05.486Z,38.90
2022-07-30T16:21:07.188Z,38.75
2022-07-30T16:26:09.375Z,39.19
2022-07-30T16:31:11.256Z,38.27
2022-07-30T16:36:14.223Z,38.53
2022-07-30T16:41:16.121Z,39.16
2022-07-30T16:46:19.075Z,40.66
2022-07-30T16:51:21.314Z,40.71
2022-07-30T16:56:22.987Z,40.10
2022-07-30T17:01:24.720Z,40.09
2022-07-30T17:06:26.586Z,39.66
2022-07-30T17:11:47.073Z,40.74
2022-07-30T17:16:50.098Z,40.15
2022-07-30T17:21:51.864Z,40.44
2022-07-30T17:26:53.647Z,41.16
2022-07-30T17:31:55.572Z,41.26
2022-07-30T17:36:57.723Z,42.45
2022-07-30T17:42:03.006Z,42.04
2022-07-30T17:47:05.312Z,42.21
2022-07-30T17:52:07.139Z,42.70
2022-07-30T17:57:09.151Z,42.96
2022-07-30T18:02:11.094Z,43.69
2022-07-30T18:07:12.859Z,43.01
2022-07-30T18:12:14.601Z,43.44
2022-07-30T18:17:16.360Z,43.90
2022-07-30T18:22:29.028Z,44.61
2022-07-30T18:27:31.678Z,44.88
2022-07-30T18:32:33.423Z,45.16
2022-07-30T18:37:41.918Z,45.19
2022-07-30T18:42:43.818Z,46.06
2022-07-30T18:47:46.592Z,46.98
2022-07-30T18:52:48.432Z,47.51
2022-07-30T18:57:52.143Z,48.14
2022-07-30T19:02:54.150Z,48.66
2022-07-30T19:07:58.285Z,48.71
2022-07-30T19:13:01.255Z,49.24
2022-07-30T19:18:03.003Z,49.50
2022-07-30T19:23:06.722Z,50.05
2022-07-30T19:28:08.588Z,50.42
2022-07-30T19:33:15.237Z,50.71
2022-07-30T19:38:21.768Z,51.19
2022-07-30T19:43:25.690Z,51.82
2022-07-30T19:48:31.900Z,52.21
2022-07-30T19:53:34.660Z,53.04
2022-07-30T19:58:36.718Z,53.36
2022-07-30T20:03:39.114Z,53.88
2022-07-30T20:08:41.803Z,54.78
2022-07-30T20:13:46.889Z,55.51
2022-07-30T20:18:52.177Z,55.86
2022-07-30T20:23:54.500Z,56.84
2022-07-30T20:28:56.183Z,57.39
2022-07-30T20:34:00.799Z,58.10
2022-07-30T20:39:03.252Z,58.78
2022-07-30T20:44:06.725Z,59.46
2022-07-30T20:49:10.406Z,59.84
2022-07-30T20:54:14.341Z,60.23
2022-07-30T20:59:16.595Z,60.01
2022-07-30T21:04:23.969Z,60.28
2022-07-30T21:09:49.836Z,60.80
2022-07-30T21:14:52.944Z,60.92
2022-07-30T21:19:54.603Z,61.49
2022-07-30T21:24:56.687Z,61.64
2022-07-30T21:29:58.589Z,62.19
2022-07-30T21:35:08.367Z,62.82
2022-07-30T21:40:10.864Z,63.05
2022-07-30T21:45:12.697Z,63.65
2022-07-30T21:50:14.646Z,63.85
2022-07-30T21:55:18.242Z,64.29
2022-07-30T22:00:44.595Z,64.29
2022-07-30T22:05:46.420Z,63.75
2022-07-30T22:10:48.529Z,63.58
2022-07-30T22:15:52.596Z,64.32
2022-07-30T22:20:55.062Z,64.70
2022-07-30T22:26:00.169Z,64.58
2022-07-30T22:31:02.046Z,65.01
2022-07-30T22:36:09.857Z,65.61
2022-07-30T22:41:13.980Z,66.00
2022-07-30T22:52:01.351Z,65.82
2022-07-30T22:57:03.895Z,66.46
2022-07-30T23:02:06.517Z,66.57
2022-07-30T23:07:14.100Z,66.25
2022-07-30T23:12:21.303Z,66.68
2022-07-30T23:12:30.468Z,65.38
2022-07-30T23:17:23.145Z,66.63
2022-07-30T23:22:25.692Z,67.21
2022-07-30T23:27:27.610Z,67.44
2022-07-30T23:32:29.293Z,68.25
2022-07-30T23:37:47.879Z,68.44
2022-07-30T23:42:51.074Z,68.61
2022-07-30T23:48:02.709Z,69.21
2022-07-30T23:53:05.132Z,69.58
2022-07-30T23:58:07.019Z,69.67
